Time;durP1;ratioP1;P1;durP2;ratioP2;P2;SDS_P1;SDS_P2;PMS_P1;PMS_P2;Temp;Humidity;BMP_temperature;BMP_pressure;BME280_temperature;BME280_humidity;BME280_pressure;Samples;Min_cycle;Max_cycle;Signal;HPM_P1;HPM_P2
2023/03/26 00:00:42;;;;;;;9.65;3.72;;;8.70;99.90;;;;;;4953104;28;20641;-71
2023/03/26 00:03:10;;;;;;;16.55;4.40;;;8.60;99.90;;;;;;4954024;28;20281;-71
2023/03/26 00:05:38;;;;;;;13.45;3.78;;;8.70;99.90;;;;;;4960565;28;20296;-70
2023/03/26 00:08:07;;;;;;;14.90;4.15;;;8.70;99.90;;;;;;4954305;28;20221;-70
2023/03/26 00:10:35;;;;;;;5.13;3.75;;;8.70;99.90;;;;;;4954764;28;20206;-72
2023/03/26 00:13:02;;;;;;;17.65;3.85;;;8.70;99.90;;;;;;4954415;28;20309;-71
2023/03/26 00:15:29;;;;;;;8.32;3.25;;;8.60;99.90;;;;;;4951741;28;20218;-71
2023/03/26 00:17:56;;;;;;;16.40;5.50;;;8.60;99.90;;;;;;4962278;28;20318;-71
2023/03/26 00:20:24;;;;;;;15.60;6.35;;;8.60;99.90;;;;;;4954757;28;20199;-72
2023/03/26 00:22:53;;;;;;;16.80;3.88;;;8.70;99.90;;;;;;4953623;28;20211;-70
2023/03/26 00:25:22;;;;;;;10.02;3.65;;;8.70;99.90;;;;;;4950928;28;20203;-71
2023/03/26 00:27:49;;;;;;;10.20;3.63;;;8.70;99.90;;;;;;4946073;28;20218;-70
2023/03/26 00:30:16;;;;;;;15.73;5.90;;;8.60;99.90;;;;;;4961108;28;20286;-71
2023/03/26 00:32:43;;;;;;;8.20;4.22;;;8.60;99.90;;;;;;4958891;28;20198;-71
2023/03/26 00:35:11;;;;;;;8.45;3.28;;;8.60;99.90;;;;;;4948947;28;20242;-70
2023/03/26 00:37:41;;;;;;;12.52;4.55;;;8.60;99.90;;;;;;4956389;28;20195;-72
2023/03/26 00:40:11;;;;;;;12.85;5.75;;;8.60;99.90;;;;;;4947711;28;20211;-72
2023/03/26 00:42:38;;;;;;;12.30;3.58;;;8.50;99.90;;;;;;4955231;28;20206;-71
2023/03/26 00:45:08;;;;;;;13.63;4.60;;;8.40;99.90;;;;;;4954132;28;20289;-71
2023/03/26 00:47:34;;;;;;;10.25;2.53;;;8.50;99.90;;;;;;4956237;28;20223;-70
2023/03/26 00:50:03;;;;;;;9.27;3.97;;;8.50;99.90;;;;;;4957572;28;20209;-70
2023/03/26 00:52:30;;;;;;;7.57;3.65;;;8.60;99.90;;;;;;4957134;28;20191;-70
2023/03/26 00:54:57;;;;;;;12.35;4.30;;;8.60;99.90;;;;;;4956934;28;20582;-70
2023/03/26 00:57:28;;;;;;;24.02;6.00;;;8.60;99.90;;;;;;4957151;28;20213;-71
2023/03/26 00:59:55;;;;;;;5.50;3.75;;;8.60;99.90;;;;;;4959316;28;20290;-71
2023/03/26 01:02:23;;;;;;;9.60;4.38;;;8.60;99.90;;;;;;4953467;28;20630;-70
2023/03/26 01:04:56;;;;;;;9.65;3.45;;;8.50;99.90;;;;;;4956142;28;20233;-70
2023/03/26 01:07:27;;;;;;;9.73;2.75;;;8.50;99.90;;;;;;4961042;28;20634;-71
2023/03/26 01:09:57;;;;;;;11.07;3.00;;;8.50;99.90;;;;;;4962318;28;20207;-72
2023/03/26 01:12:30;;;;;;;6.85;2.60;;;8.50;99.90;;;;;;4951907;28;20206;-70
2023/03/26 01:15:00;;;;;;;10.10;3.40;;;8.50;99.90;;;;;;4958175;28;20253;-72
2023/03/26 01:17:32;;;;;;;8.73;2.80;;;8.50;99.90;;;;;;4968643;28;20297;-70
2023/03/26 01:20:12;;;;;;;7.93;3.00;;;8.50;99.90;;;;;;4958217;28;20619;-70
2023/03/26 01:22:41;;;;;;;3.78;2.05;;;8.40;99.90;;;;;;4954274;28;20198;-71
2023/03/26 01:25:11;;;;;;;4.80;2.42;;;8.40;99.90;;;;;;4957277;28;20199;-70
2023/03/26 01:27:42;;;;;;;9.10;2.40;;;8.40;99.90;;;;;;4957200;28;20711;-71
2023/03/26 01:30:16;;;;;;;4.93;2.70;;;8.40;99.90;;;;;;4963104;28;20234;-71
2023/03/26 01:32:54;;;;;;;6.40;2.00;;;8.40;99.90;;;;;;4960422;28;20229;-71
2023/03/26 01:35:30;;;;;;;15.05;3.25;;;8.40;99.90;;;;;;4956823;28;20203;-71
2023/03/26 01:38:13;;;;;;;10.85;2.70;;;8.30;99.90;;;;;;4948479;28;20644;-71
2023/03/26 01:40:54;;;;;;;5.20;2.72;;;8.30;99.90;;;;;;4955177;28;20623;-71
2023/03/26 01:43:28;;;;;;;6.68;2.83;;;8.40;99.90;;;;;;4956641;28;20298;-71
2023/03/26 01:45:57;;;;;;;11.55;4.60;;;8.30;99.90;;;;;;4953475;28;20618;-71
2023/03/26 01:48:33;;;;;;;11.25;3.17;;;8.30;99.90;;;;;;4957277;28;20202;-71
2023/03/26 01:51:00;;;;;;;5.00;3.47;;;8.30;99.90;;;;;;4956598;28;20210;-71
2023/03/26 01:53:29;;;;;;;7.55;4.70;;;8.30;99.90;;;;;;4956027;28;20269;-69
2023/03/26 01:58:57;;;;;;;13.40;3.08;;;8.30;99.90;;;;;;4957390;28;20208;-71
2023/03/26 02:01:29;;;;;;;8.52;3.17;;;8.30;99.90;;;;;;4955937;28;20205;-71
2023/03/26 02:04:01;;;;;;;12.43;4.07;;;8.40;99.90;;;;;;4956176;29;20222;-70
2023/03/26 02:06:36;;;;;;;15.68;2.85;;;8.40;99.90;;;;;;4957356;28;20203;-71
2023/03/26 02:09:06;;;;;;;9.30;3.85;;;8.30;99.90;;;;;;4955510;28;20281;-70
2023/03/26 02:11:37;;;;;;;17.80;4.85;;;8.30;99.90;;;;;;4957894;28;20617;-71
2023/03/26 02:14:05;;;;;;;13.02;4.30;;;8.30;99.90;;;;;;4959288;28;20233;-71
2023/03/26 02:16:32;;;;;;;14.75;5.35;;;8.30;99.90;;;;;;4955096;28;20297;-71
2023/03/26 02:18:59;;;;;;;16.92;3.97;;;8.40;99.90;;;;;;4956255;28;20641;-71
2023/03/26 02:21:27;;;;;;;6.05;3.50;;;8.40;99.90;;;;;;4962048;28;20198;-71
2023/03/26 02:24:01;;;;;;;7.43;3.53;;;8.50;99.90;;;;;;4955443;28;20250;-71
2023/03/26 02:26:30;;;;;;;9.55;3.63;;;8.50;99.90;;;;;;4959512;28;20712;-70
2023/03/26 02:29:00;;;;;;;9.25;3.22;;;8.50;99.90;;;;;;4955607;28;20281;-71
2023/03/26 02:31:28;;;;;;;23.70;4.15;;;8.50;99.90;;;;;;4955067;28;20297;-70
2023/03/26 02:33:56;;;;;;;10.80;3.17;;;8.50;99.90;;;;;;4955326;28;20286;-72
2023/03/26 02:36:25;;;;;;;9.30;3.40;;;8.50;99.90;;;;;;4955393;28;20210;-70
2023/03/26 02:38:54;;;;;;;7.50;2.97;;;8.50;99.90;;;;;;4955575;28;20292;-71
2023/03/26 02:41:21;;;;;;;8.70;3.10;;;8.50;99.90;;;;;;4954379;28;20202;-71
2023/03/26 02:43:48;;;;;;;9.13;3.50;;;8.60;99.90;;;;;;4955507;28;20261;-71
2023/03/26 02:46:16;;;;;;;13.05;4.32;;;8.50;99.90;;;;;;4955834;28;20234;-71
2023/03/26 02:48:43;;;;;;;14.70;4.88;;;8.60;99.90;;;;;;4955288;28;20241;-71
2023/03/26 02:51:10;;;;;;;7.75;2.88;;;8.60;99.90;;;;;;4954629;28;20203;-71
2023/03/26 02:53:38;;;;;;;10.45;4.13;;;8.60;99.90;;;;;;4954772;28;20297;-68
2023/03/26 02:56:06;;;;;;;13.90;3.42;;;8.60;99.90;;;;;;4955006;28;20221;-71
2023/03/26 02:58:33;;;;;;;14.40;4.85;;;8.60;99.90;;;;;;4956276;28;20289;-70
2023/03/26 03:01:01;;;;;;;10.93;3.35;;;8.60;99.90;;;;;;4954860;28;20211;-72
2023/03/26 03:03:30;;;;;;;8.95;3.95;;;8.60;99.90;;;;;;4954789;28;20230;-72
2023/03/26 03:05:57;;;;;;;19.92;4.50;;;8.60;99.90;;;;;;4964586;28;20293;-71
2023/03/26 03:08:26;;;;;;;15.05;3.25;;;8.60;99.90;;;;;;4958808;28;20217;-72
2023/03/26 03:10:58;;;;;;;12.73;2.95;;;8.60;99.90;;;;;;4954516;29;20304;-71
2023/03/26 03:13:25;;;;;;;11.73;3.22;;;8.70;99.90;;;;;;4954910;28;20237;-71
2023/03/26 03:15:52;;;;;;;10.30;3.53;;;8.60;99.90;;;;;;4955082;28;20215;-71
2023/03/26 03:18:19;;;;;;;9.63;4.18;;;8.60;99.90;;;;;;4958376;28;20203;-71
2023/03/26 03:20:48;;;;;;;7.40;3.50;;;8.60;99.90;;;;;;4958594;28;20195;-71
2023/03/26 03:23:16;;;;;;;11.80;3.22;;;8.50;99.90;;;;;;4955750;28;20231;-71
2023/03/26 03:25:43;;;;;;;11.48;3.25;;;8.50;99.90;;;;;;4954259;28;20290;-71
2023/03/26 03:28:10;;;;;;;11.30;3.88;;;8.50;99.90;;;;;;4952245;28;20210;-73
2023/03/26 03:30:38;;;;;;;8.75;3.30;;;8.50;99.90;;;;;;4961754;28;20218;-72
2023/03/26 03:33:05;;;;;;;13.07;3.60;;;8.60;99.90;;;;;;4962040;28;20258;-72
2023/03/26 03:35:33;;;;;;;10.75;5.60;;;8.50;99.90;;;;;;4977130;28;20206;-72
2023/03/26 03:38:02;;;;;;;13.95;3.00;;;8.60;99.90;;;;;;4967674;28;20210;-72
2023/03/26 03:40:29;;;;;;;7.75;3.50;;;8.60;99.90;;;;;;4957216;28;20554;-71
2023/03/26 03:42:56;;;;;;;12.30;3.35;;;8.60;99.90;;;;;;4956814;28;20312;-72
2023/03/26 03:45:23;;;;;;;15.43;3.53;;;8.60;99.90;;;;;;4953085;28;20206;-72
2023/03/26 03:47:50;;;;;;;10.10;3.30;;;8.50;99.90;;;;;;4951828;28;20229;-72
2023/03/26 03:50:17;;;;;;;9.43;3.20;;;8.50;99.90;;;;;;4953372;28;20660;-72
2023/03/26 03:52:44;;;;;;;12.63;2.80;;;8.50;99.90;;;;;;4951559;28;20303;-72
2023/03/26 03:55:12;;;;;;;10.95;2.85;;;8.50;99.90;;;;;;4945664;28;20245;-72
2023/03/26 03:57:40;;;;;;;10.45;2.40;;;8.50;99.90;;;;;;4953817;28;20208;-72
2023/03/26 04:00:10;;;;;;;7.47;2.70;;;8.50;99.90;;;;;;4953521;28;20258;-72
2023/03/26 04:02:37;;;;;;;8.25;2.33;;;8.50;99.90;;;;;;4953893;28;20207;-71
2023/03/26 04:05:06;;;;;;;9.88;3.40;;;8.50;99.90;;;;;;4954568;28;20269;-72
2023/03/26 04:07:33;;;;;;;7.63;2.20;;;8.60;99.90;;;;;;4947319;28;20202;-72
2023/03/26 04:10:02;;;;;;;10.27;2.75;;;8.60;99.90;;;;;;4954182;29;20199;-73
2023/03/26 04:12:31;;;;;;;8.00;3.38;;;8.60;99.90;;;;;;4953862;28;20194;-72
2023/03/26 04:14:58;;;;;;;10.23;2.78;;;8.60;99.90;;;;;;4954352;28;20250;-72
2023/03/26 04:17:26;;;;;;;6.22;2.72;;;8.70;99.90;;;;;;4953688;28;20199;-72
2023/03/26 04:19:53;;;;;;;12.20;3.25;;;8.70;99.90;;;;;;4952925;28;20199;-72
2023/03/26 04:22:21;;;;;;;11.02;2.90;;;8.70;99.90;;;;;;4956872;28;20198;-71
2023/03/26 04:24:49;;;;;;;4.28;2.65;;;8.60;99.90;;;;;;4960621;28;20462;-71
2023/03/26 04:27:20;;;;;;;12.93;2.50;;;8.60;99.90;;;;;;4957516;28;20219;-72
2023/03/26 04:29:49;;;;;;;5.40;2.30;;;8.60;99.90;;;;;;4954139;28;20195;-72
2023/03/26 04:32:23;;;;;;;11.23;2.70;;;8.50;99.90;;;;;;4958060;28;20203;-72
2023/03/26 04:34:51;;;;;;;20.45;3.50;;;8.50;99.90;;;;;;4956071;28;20301;-71
2023/03/26 04:37:26;;;;;;;10.45;2.60;;;8.50;99.90;;;;;;4954038;28;20219;-72
2023/03/26 04:39:53;;;;;;;6.45;1.75;;;8.50;99.90;;;;;;4956991;28;20557;-72
2023/03/26 04:42:21;;;;;;;7.20;2.35;;;8.50;99.90;;;;;;4952068;28;20211;-72
2023/03/26 04:44:51;;;;;;;8.93;3.00;;;8.50;99.90;;;;;;4957613;28;20325;-72
2023/03/26 04:47:18;;;;;;;12.75;3.08;;;8.50;99.90;;;;;;4953921;28;20204;-72
2023/03/26 04:49:46;;;;;;;8.10;2.00;;;8.40;99.90;;;;;;4957106;29;20637;-72
2023/03/26 04:52:14;;;;;;;10.40;3.35;;;8.40;99.90;;;;;;4950624;28;20203;-72
2023/03/26 04:54:44;;;;;;;8.10;3.33;;;8.30;99.90;;;;;;4957507;29;20313;-73
2023/03/26 04:57:18;;;;;;;11.50;3.35;;;8.30;99.90;;;;;;4957142;28;20221;-72
2023/03/26 04:59:45;;;;;;;6.82;2.45;;;8.30;99.90;;;;;;4956670;28;20892;-72
2023/03/26 05:02:14;;;;;;;10.20;2.08;;;8.30;99.90;;;;;;4956727;28;20636;-72
2023/03/26 05:04:42;;;;;;;13.70;3.15;;;8.30;99.90;;;;;;4956817;28;20725;-72
2023/03/26 05:07:11;;;;;;;9.80;3.20;;;8.30;99.90;;;;;;4957230;28;20199;-73
2023/03/26 05:09:38;;;;;;;8.75;3.80;;;8.10;99.90;;;;;;4955792;28;20289;-72
2023/03/26 05:12:05;;;;;;;8.93;3.10;;;8.20;99.90;;;;;;4955421;28;20203;-74
2023/03/26 05:14:32;;;;;;;18.92;3.95;;;8.20;99.90;;;;;;4956192;28;20309;-72
2023/03/26 05:17:00;;;;;;;7.10;2.00;;;8.10;99.90;;;;;;4955835;29;20213;-72
2023/03/26 05:19:29;;;;;;;5.45;1.70;;;8.10;99.90;;;;;;4956349;28;20206;-71
2023/03/26 05:21:56;;;;;;;11.18;2.15;;;8.10;99.90;;;;;;4957214;28;20195;-72
2023/03/26 05:24:23;;;;;;;7.70;2.67;;;8.10;99.90;;;;;;4956628;28;20701;-72
2023/03/26 05:26:50;;;;;;;5.63;3.00;;;8.10;99.90;;;;;;4956814;28;20207;-73
2023/03/26 05:29:19;;;;;;;6.80;2.28;;;8.20;99.90;;;;;;4959085;28;20230;-72
2023/03/26 05:31:47;;;;;;;4.40;1.75;;;8.20;99.90;;;;;;4956296;28;20314;-71
2023/03/26 05:34:14;;;;;;;7.28;1.98;;;8.20;99.90;;;;;;4969833;28;20238;-73
2023/03/26 05:36:42;;;;;;;8.60;1.77;;;8.20;99.90;;;;;;4957399;28;20650;-72
2023/03/26 05:39:09;;;;;;;7.10;2.03;;;8.20;99.90;;;;;;4956965;28;20220;-73
2023/03/26 05:41:36;;;;;;;8.38;2.05;;;8.20;99.90;;;;;;4955200;28;20272;-72
2023/03/26 05:44:03;;;;;;;9.57;2.42;;;8.30;99.90;;;;;;4956203;28;20236;-72
2023/03/26 05:46:30;;;;;;;11.48;2.00;;;8.30;99.90;;;;;;4956461;28;20199;-73
2023/03/26 05:48:57;;;;;;;9.30;1.70;;;8.30;99.90;;;;;;4960615;28;20648;-73
2023/03/26 05:51:24;;;;;;;9.63;2.20;;;8.30;99.90;;;;;;4959286;28;20226;-72
2023/03/26 05:53:52;;;;;;;6.60;1.73;;;8.30;99.90;;;;;;4948444;28;20219;-74
2023/03/26 05:56:19;;;;;;;12.90;2.00;;;8.30;99.90;;;;;;4956526;28;20249;-73
2023/03/26 05:58:47;;;;;;;7.28;2.72;;;8.40;99.90;;;;;;4958185;28;20195;-73
2023/03/26 06:01:17;;;;;;;9.35;1.92;;;8.40;99.90;;;;;;4955730;28;20231;-73
2023/03/26 06:03:45;;;;;;;8.10;2.40;;;8.40;99.90;;;;;;4957656;28;20230;-71
2023/03/26 06:06:15;;;;;;;6.80;1.83;;;8.40;99.90;;;;;;4959403;28;20289;-73
2023/03/26 06:08:42;;;;;;;8.60;1.70;;;8.40;99.90;;;;;;4956290;28;20218;-72
2023/03/26 06:11:11;;;;;;;7.45;2.60;;;8.40;99.90;;;;;;4955471;28;20297;-73
2023/03/26 06:13:38;;;;;;;9.30;2.97;;;8.30;99.90;;;;;;4955867;28;20258;-75
2023/03/26 06:16:06;;;;;;;8.18;2.72;;;8.30;99.90;;;;;;4955865;28;20290;-74
2023/03/26 06:18:34;;;;;;;6.80;3.30;;;8.40;99.90;;;;;;4955720;28;20305;-73
2023/03/26 06:21:03;;;;;;;10.60;2.78;;;8.50;99.90;;;;;;4953060;28;20309;-72
2023/03/26 06:23:30;;;;;;;15.18;3.22;;;8.50;99.90;;;;;;4963918;28;20264;-73
2023/03/26 06:25:57;;;;;;;9.70;2.50;;;8.50;99.90;;;;;;4963410;28;20199;-74
2023/03/26 06:28:26;;;;;;;9.70;3.00;;;8.60;99.90;;;;;;4956125;28;20222;-73
2023/03/26 06:30:53;;;;;;;11.60;2.58;;;8.70;99.90;;;;;;4955668;28;20282;-73
2023/03/26 06:33:30;;;;;;;8.68;3.10;;;8.70;99.90;;;;;;4956176;28;20589;-72
2023/03/26 06:36:09;;;;;;;14.43;3.20;;;8.70;99.90;;;;;;4957040;28;20972;-72
2023/03/26 06:38:36;;;;;;;9.23;2.42;;;8.80;99.90;;;;;;4956588;28;20202;-73
2023/03/26 06:41:16;;;;;;;16.15;4.53;;;8.80;99.90;;;;;;4956913;28;20249;-73
2023/03/26 06:43:44;;;;;;;5.57;1.67;;;8.90;99.90;;;;;;4953548;28;20241;-72
2023/03/26 06:46:38;;;;;;;11.98;2.50;;;8.90;99.90;;;;;;4957664;28;20293;-72
2023/03/26 06:49:05;;;;;;;9.32;2.85;;;8.90;99.90;;;;;;4955990;29;20249;-72
2023/03/26 06:51:48;;;;;;;16.98;3.70;;;8.90;99.90;;;;;;4956218;28;20221;-74
2023/03/26 06:54:15;;;;;;;6.38;3.42;;;8.90;99.90;;;;;;4953645;29;20635;-73
2023/03/26 06:56:43;;;;;;;9.05;2.67;;;8.90;99.90;;;;;;4966562;28;20304;-72
2023/03/26 06:59:11;;;;;;;9.38;2.53;;;8.80;99.90;;;;;;4958552;28;20207;-74
2023/03/26 07:01:39;;;;;;;9.77;2.85;;;8.70;99.90;;;;;;4956068;28;20191;-72
2023/03/26 07:04:06;;;;;;;9.45;2.63;;;8.80;99.90;;;;;;4956283;28;20310;-72
2023/03/26 07:06:45;;;;;;;12.93;3.20;;;8.80;99.90;;;;;;4956230;28;20285;-73
2023/03/26 07:09:12;;;;;;;13.13;3.03;;;8.70;99.90;;;;;;4962183;28;20221;-73
2023/03/26 07:11:40;;;;;;;8.45;4.00;;;8.80;99.90;;;;;;4956447;29;20242;-72
2023/03/26 07:14:07;;;;;;;20.23;4.70;;;8.70;99.90;;;;;;4956535;28;20230;-73
2023/03/26 07:16:39;;;;;;;10.38;3.67;;;8.70;99.90;;;;;;4956368;28;20603;-72
2023/03/26 07:19:06;;;;;;;16.65;4.85;;;8.60;99.90;;;;;;4955875;28;20278;-74
2023/03/26 07:21:34;;;;;;;8.93;2.50;;;8.80;99.90;;;;;;4955825;28;20274;-72
2023/03/26 07:24:01;;;;;;;12.60;3.40;;;8.70;99.90;;;;;;4955100;28;20330;-74
2023/03/26 07:26:38;;;;;;;15.45;2.45;;;8.60;99.90;;;;;;4962404;28;20277;-72
2023/03/26 07:29:13;;;;;;;18.85;3.55;;;8.60;99.90;;;;;;4967148;28;20262;-74
2023/03/26 07:31:47;;;;;;;11.27;3.00;;;8.70;99.90;;;;;;4952564;28;20335;-74
2023/03/26 07:34:28;;;;;;;10.95;4.05;;;8.80;99.90;;;;;;4953256;28;20567;-70
2023/03/26 07:37:02;;;;;;;21.92;4.25;;;8.80;99.90;;;;;;4947848;28;20226;-73
2023/03/26 07:39:43;;;;;;;14.52;2.70;;;8.80;99.90;;;;;;4960692;28;20211;-73
2023/03/26 07:42:23;;;;;;;16.50;3.03;;;8.80;99.90;;;;;;4955117;28;20294;-73
2023/03/26 07:44:54;;;;;;;15.88;2.60;;;8.80;99.90;;;;;;4958178;28;20245;-73
2023/03/26 07:47:30;;;;;;;8.23;2.72;;;8.70;99.90;;;;;;4953867;28;20286;-74
2023/03/26 07:49:57;;;;;;;15.07;4.40;;;8.70;99.90;;;;;;4953824;28;20272;-73
2023/03/26 07:52:25;;;;;;;9.90;3.55;;;8.60;99.90;;;;;;4956194;28;20222;-74
2023/03/26 07:54:52;;;;;;;17.63;3.33;;;8.60;99.90;;;;;;4954110;28;20226;-74
2023/03/26 07:57:33;;;;;;;12.45;2.97;;;8.50;99.90;;;;;;4952725;28;20211;-75
2023/03/26 08:00:10;;;;;;;8.60;3.35;;;8.50;99.90;;;;;;4947266;28;20683;-75
2023/03/26 08:03:04;;;;;;;10.70;2.90;;;8.60;99.90;;;;;;4952199;28;20253;-73
2023/03/26 08:05:35;;;;;;;11.63;2.42;;;8.70;99.90;;;;;;4952160;28;20203;-73
2023/03/26 08:08:15;;;;;;;12.32;2.95;;;8.80;99.90;;;;;;4954217;28;20250;-74
2023/03/26 08:11:00;;;;;;;6.13;2.50;;;8.90;99.90;;;;;;4953308;28;20234;-72
2023/03/26 08:13:36;;;;;;;7.68;2.20;;;8.90;99.90;;;;;;4954175;28;20309;-76
2023/03/26 08:16:08;;;;;;;12.95;2.33;;;8.90;99.90;;;;;;4953584;28;20210;-72
2023/03/26 08:18:49;;;;;;;13.13;3.13;;;8.90;99.90;;;;;;4949364;28;20208;-76
2023/03/26 08:21:22;;;;;;;18.98;3.78;;;9.00;99.90;;;;;;4952151;28;20300;-74
2023/03/26 08:24:00;;;;;;;14.10;4.20;;;9.10;99.90;;;;;;4954161;28;20306;-75
2023/03/26 08:26:34;;;;;;;10.30;2.75;;;9.30;99.90;;;;;;4957812;28;20209;-75
2023/03/26 08:29:15;;;;;;;15.98;3.78;;;9.40;99.90;;;;;;4954371;28;20678;-73
2023/03/26 08:31:44;;;;;;;13.57;3.38;;;9.40;99.90;;;;;;4953410;28;20199;-77
2023/03/26 08:34:13;;;;;;;12.50;3.08;;;9.30;99.90;;;;;;4953323;28;20568;-75
2023/03/26 08:36:40;;;;;;;8.18;2.22;;;9.30;99.90;;;;;;4954373;28;20201;-74
2023/03/26 08:39:07;;;;;;;11.10;2.97;;;9.30;99.90;;;;;;4954114;28;20206;-74
2023/03/26 08:42:19;;;;;;;24.73;4.95;;;9.30;99.90;;;;;;4954856;28;20195;-73
2023/03/26 08:45:22;;;;;;;8.40;2.35;;;9.40;99.90;;;;;;4952920;28;20254;-74
2023/03/26 08:48:27;;;;;;;14.02;3.58;;;9.60;99.90;;;;;;4945716;28;20629;-69
2023/03/26 08:51:27;;;;;;;11.00;3.15;;;9.60;99.90;;;;;;4950092;28;20259;-72
2023/03/26 08:54:23;;;;;;;11.93;3.40;;;9.70;99.90;;;;;;4957146;28;20234;-75
2023/03/26 08:57:00;;;;;;;8.13;2.60;;;9.70;99.90;;;;;;4948216;29;20200;-74
2023/03/26 08:59:53;;;;;;;11.70;3.28;;;9.80;99.90;;;;;;4952887;28;20293;-72
2023/03/26 09:02:43;;;;;;;15.25;2.88;;;10.00;99.90;;;;;;4960184;28;20203;-74
2023/03/26 09:05:53;;;;;;;10.00;2.42;;;10.00;99.90;;;;;;4949059;28;20290;-76
2023/03/26 09:09:03;;;;;;;8.82;3.08;;;10.00;99.90;;;;;;4929740;28;20200;-74
2023/03/26 09:12:07;;;;;;;7.18;3.00;;;10.00;99.90;;;;;;4956691;28;20203;-76
2023/03/26 09:14:59;;;;;;;13.68;2.88;;;9.80;99.90;;;;;;4954292;28;20225;-75
2023/03/26 09:18:08;;;;;;;14.75;2.72;;;9.90;99.90;;;;;;4956624;28;20259;-75
2023/03/26 09:20:54;;;;;;;10.43;2.08;;;10.20;99.90;;;;;;4905480;28;20207;-73
2023/03/26 09:23:58;;;;;;;10.00;2.40;;;10.40;99.90;;;;;;4951340;28;20617;-72
2023/03/26 09:26:35;;;;;;;8.55;2.50;;;10.40;99.90;;;;;;4917828;28;20754;-73
2023/03/26 09:29:29;;;;;;;8.88;3.42;;;10.30;99.90;;;;;;4952994;28;20263;-75
2023/03/26 09:32:28;;;;;;;16.90;4.57;;;10.40;99.90;;;;;;4933157;28;20205;-73
2023/03/26 09:35:12;;;;;;;11.30;2.60;;;10.30;99.90;;;;;;4943008;28;20254;-73
2023/03/26 09:37:50;;;;;;;11.43;1.65;;;10.40;99.90;;;;;;4955723;28;20205;-75
2023/03/26 09:40:19;;;;;;;10.50;2.30;;;10.40;99.90;;;;;;4972785;28;20206;-76
2023/03/26 09:42:53;;;;;;;9.25;3.13;;;10.40;99.90;;;;;;4956327;28;20210;-74
2023/03/26 09:45:36;;;;;;;16.75;7.53;;;10.30;99.90;;;;;;4955930;28;20294;-76
2023/03/26 09:48:56;;;;;;;11.77;4.90;;;10.40;99.90;;;;;;4960280;28;20230;-74
2023/03/26 09:51:45;;;;;;;7.68;3.80;;;10.70;99.90;;;;;;4892440;29;20221;-74
2023/03/26 09:54:43;;;;;;;9.05;4.13;;;10.80;99.90;;;;;;4894052;29;20768;-78
2023/03/26 09:57:23;;;;;;;20.05;6.75;;;10.70;99.90;;;;;;4948404;28;20210;-79
2023/03/26 10:00:06;;;;;;;13.52;4.30;;;10.70;99.90;;;;;;4963936;28;20254;-78
2023/03/26 10:02:56;;;;;;;11.30;4.00;;;11.00;99.90;;;;;;4953254;28;20247;-81
2023/03/26 10:05:44;;;;;;;14.18;4.38;;;11.00;99.90;;;;;;4953821;28;20253;-77
2023/03/26 10:08:27;;;;;;;11.20;4.20;;;10.90;99.90;;;;;;4956464;28;20236;-76
2023/03/26 10:10:58;;;;;;;7.70;2.92;;;11.20;99.90;;;;;;4956127;28;20760;-77
2023/03/26 10:13:33;;;;;;;9.77;3.95;;;11.60;99.90;;;;;;4957306;28;20221;-75
2023/03/26 10:16:16;;;;;;;11.40;3.65;;;11.50;99.90;;;;;;4958392;28;20212;-78
2023/03/26 10:18:58;;;;;;;12.48;2.63;;;11.40;99.90;;;;;;4956213;28;20294;-75
2023/03/26 10:21:36;;;;;;;8.80;2.67;;;11.30;99.90;;;;;;4952081;28;20664;-76
2023/03/26 10:24:22;;;;;;;12.23;3.00;;;11.30;99.90;;;;;;4956750;28;20333;-75
2023/03/26 10:27:03;;;;;;;16.27;3.63;;;11.40;99.90;;;;;;4956763;28;20196;-77
2023/03/26 10:29:53;;;;;;;10.75;3.03;;;11.60;99.90;;;;;;4954448;28;20263;-76
2023/03/26 10:32:31;;;;;;;16.38;3.95;;;11.80;99.90;;;;;;4955764;28;20263;-77
2023/03/26 10:35:10;;;;;;;17.00;3.47;;;11.90;99.90;;;;;;4963642;28;20741;-77
2023/03/26 10:37:50;;;;;;;10.35;2.95;;;12.00;98.70;;;;;;4959840;28;20296;-76
2023/03/26 10:40:41;;;;;;;13.68;3.55;;;11.80;98.70;;;;;;4950086;29;20530;-75
2023/03/26 10:43:52;;;;;;;14.38;3.80;;;11.70;96.80;;;;;;4955825;28;20225;-76
2023/03/26 10:47:14;;;;;;;13.15;3.78;;;12.10;99.90;;;;;;4938363;28;20217;-79
2023/03/26 10:50:26;;;;;;;14.52;7.00;;;12.50;97.90;;;;;;4923780;28;20222;-79
2023/03/26 10:52:59;;;;;;;17.00;5.32;;;12.70;97.30;;;;;;4927768;28;20237;-75
2023/03/26 10:55:34;;;;;;;19.45;6.32;;;12.90;95.90;;;;;;4953833;28;20238;-73
2023/03/26 11:01:00;;;;;;;19.83;4.60;;;12.90;96.50;;;;;;4953274;29;20217;-81
2023/03/26 11:03:50;;;;;;;16.90;4.22;;;12.70;95.40;;;;;;4963536;28;20226;-76
2023/03/26 11:06:31;;;;;;;8.73;2.78;;;12.50;95.00;;;;;;4977321;28;20194;-86
2023/03/26 11:09:07;;;;;;;14.98;3.35;;;12.40;95.80;;;;;;4950465;28;20627;-78
2023/03/26 11:11:43;;;;;;;17.13;4.07;;;12.60;96.90;;;;;;4954848;28;20737;-79
2023/03/26 11:14:17;;;;;;;13.50;3.75;;;13.00;96.40;;;;;;4954826;28;20255;-77
2023/03/26 11:17:01;;;;;;;10.77;4.63;;;13.40;95.80;;;;;;4958339;28;20789;-76
2023/03/26 11:19:36;;;;;;;13.25;3.65;;;13.60;94.80;;;;;;4957107;28;20213;-77
2023/03/26 11:22:15;;;;;;;14.88;3.80;;;13.50;94.80;;;;;;4952507;28;20222;-77
2023/03/26 11:25:07;;;;;;;15.35;3.80;;;13.70;94.80;;;;;;4949708;28;20237;-75
2023/03/26 11:27:45;;;;;;;14.70;3.72;;;13.60;94.60;;;;;;4952789;28;20297;-78
2023/03/26 11:30:21;;;;;;;16.85;4.13;;;13.70;94.10;;;;;;4955547;28;20233;-73
2023/03/26 11:32:52;;;;;;;13.15;3.60;;;13.70;93.10;;;;;;4954047;28;20218;-76
2023/03/26 11:35:26;;;;;;;12.68;2.95;;;13.40;91.80;;;;;;4957964;28;20203;-73
2023/03/26 11:37:55;;;;;;;13.13;2.97;;;13.00;93.20;;;;;;4957499;28;20199;-76
2023/03/26 11:40:30;;;;;;;11.00;3.50;;;13.00;94.40;;;;;;4953261;28;20278;-75
2023/03/26 11:43:01;;;;;;;9.30;2.75;;;13.20;93.20;;;;;;4952729;28;20347;-76
2023/03/26 11:45:31;;;;;;;17.55;3.05;;;12.90;93.20;;;;;;4958167;28;20205;-75
2023/03/26 11:48:06;;;;;;;14.23;3.47;;;13.00;92.90;;;;;;4961701;28;20212;-75
2023/03/26 11:50:39;;;;;;;16.33;3.70;;;13.00;93.00;;;;;;4953410;28;20213;-74
2023/03/26 11:53:12;;;;;;;14.75;3.10;;;13.10;93.50;;;;;;4952543;28;20276;-75
2023/03/26 11:55:47;;;;;;;6.53;3.53;;;13.30;92.70;;;;;;4958317;28;20205;-74
2023/03/26 11:58:28;;;;;;;8.82;4.15;;;13.10;92.20;;;;;;4959979;28;20209;-73
2023/03/26 12:00:56;;;;;;;8.32;3.35;;;13.00;91.50;;;;;;4957168;28;20684;-75
2023/03/26 12:03:23;;;;;;;14.15;4.15;;;12.80;91.20;;;;;;4959622;28;20233;-74
2023/03/26 12:05:57;;;;;;;19.92;3.33;;;12.60;91.40;;;;;;4954917;28;20554;-73
2023/03/26 12:08:31;;;;;;;13.68;3.25;;;12.80;91.60;;;;;;4953365;28;20202;-73
2023/03/26 12:11:05;;;;;;;11.30;3.28;;;13.00;91.20;;;;;;4953531;28;20267;-73
2023/03/26 12:13:39;;;;;;;10.77;3.05;;;13.30;91.30;;;;;;4955496;28;20243;-72
2023/03/26 12:16:10;;;;;;;8.60;3.75;;;13.40;90.00;;;;;;4948452;29;20213;-78
2023/03/26 12:18:40;;;;;;;12.13;4.68;;;13.10;90.70;;;;;;4955250;28;20203;-75
2023/03/26 12:21:09;;;;;;;11.07;3.92;;;12.90;90.00;;;;;;4955286;28;20195;-75
2023/03/26 12:23:51;;;;;;;15.00;4.55;;;13.00;90.70;;;;;;4953943;28;20582;-78
2023/03/26 12:26:30;;;;;;;15.70;3.55;;;13.30;90.60;;;;;;4949768;28;20206;-75
2023/03/26 12:29:07;;;;;;;16.38;3.85;;;13.10;90.50;;;;;;4949337;28;20209;-78
2023/03/26 12:31:45;;;;;;;14.63;3.38;;;12.90;90.40;;;;;;4962123;28;20214;-75
2023/03/26 12:34:16;;;;;;;12.98;4.20;;;13.10;90.40;;;;;;4948818;28;20266;-76
2023/03/26 12:36:50;;;;;;;9.43;3.17;;;13.00;89.10;;;;;;4958836;28;20234;-77
2023/03/26 12:39:29;;;;;;;15.75;3.38;;;12.90;88.10;;;;;;4953343;28;20203;-77
2023/03/26 12:42:00;;;;;;;7.95;2.20;;;12.80;88.40;;;;;;4953106;28;20684;-75
2023/03/26 12:44:30;;;;;;;6.55;2.88;;;12.90;89.30;;;;;;4953793;28;20580;-77
2023/03/26 12:47:14;;;;;;;13.40;2.97;;;13.00;89.50;;;;;;4956939;28;20234;-77
2023/03/26 12:49:41;;;;;;;11.60;3.95;;;12.90;88.00;;;;;;4955374;28;20198;-73
2023/03/26 12:52:37;;;;;;;12.45;3.08;;;12.90;89.20;;;;;;4957090;28;20246;-74
2023/03/26 12:55:15;;;;;;;5.95;3.15;;;12.80;89.10;;;;;;4954103;28;20225;-72
2023/03/26 12:57:55;;;;;;;7.88;2.28;;;12.70;89.00;;;;;;4956174;28;20305;-73
2023/03/26 13:00:31;;;;;;;9.02;2.70;;;12.50;89.80;;;;;;4955478;28;20543;-72
2023/03/26 13:03:16;;;;;;;10.38;4.20;;;12.60;90.00;;;;;;4950286;29;20225;-73
2023/03/26 13:06:06;;;;;;;12.55;3.47;;;12.60;90.10;;;;;;4957927;28;20255;-72
2023/03/26 13:08:56;;;;;;;13.13;2.80;;;12.40;89.60;;;;;;4957869;28;20202;-76
2023/03/26 13:11:31;;;;;;;10.70;3.25;;;12.20;90.60;;;;;;4957056;28;20623;-76
2023/03/26 13:14:45;;;;;;;8.65;3.08;;;12.10;91.00;;;;;;4956052;28;20237;-79
2023/03/26 13:17:21;;;;;;;10.30;3.25;;;11.90;91.00;;;;;;4895892;29;20293;-78
2023/03/26 13:19:57;;;;;;;16.08;4.07;;;11.90;90.90;;;;;;4876946;29;20207;-73
2023/03/26 13:22:31;;;;;;;11.07;3.53;;;11.80;90.70;;;;;;4926355;28;20205;-77
2023/03/26 13:25:06;;;;;;;9.73;4.65;;;11.80;90.80;;;;;;4955561;28;20297;-78
2023/03/26 13:27:48;;;;;;;7.50;2.85;;;11.70;90.20;;;;;;4956911;28;20213;-75
2023/03/26 13:30:25;;;;;;;12.75;2.97;;;11.80;90.80;;;;;;4951536;28;20240;-78